Terminal Aerodrome Forecast
Issued by NWS Newport/Morehead City, NC

Home | Current Version | Previous Version | Graphics & Text | Print | Product List | Glossary On
Versions: 1 2 3 4 5 6 7 8 9 10 11 12 13 14
961
FTUS42 KMHX 181149
TAFEWN
TAF
KEWN 181149Z 1812/1912 00000KT 1/4SM FG VV002
     FM181300 VRB03KT P6SM SCT250
     FM181700 20012G22KT P6SM BKN040
     FM190800 21012G20KT P6SM VCSH BKN030=

USA.gov is the U.S. government's official web portal to all federal, state and local government web resources and services.